Aérodrome :
LOGIN :

S'inscrire | Disclaimer

   EN    FR    IT 

 










Légende :    VFR   VFR Marginal   IFR   IFR Intensif   IFR Très Intensif
Visi : 
Plafond : 
>= 8 km
>= 3000ft
5 à 8 km
1000 à 3000 ft
1500m à 5 km
500 à 1000 ft
800 à 1500m
200 à 500 ft
< 800m
< 200 ft
Symboles :   Orages  Brouillard  Fortes neiges  Fortes précipitations  Vent > 20 kt
SIGMETs :   Divers  Orages  Givrage  Turbulence  Onde Orograph.  Cendres Volcan.







- Altitude de l'aérodrome : 856 ft
- Code IATA : VGO


LEVX - Vigo Peinador

DERNIER METAR :
  • 221900Z VRB03KT CAVOK 20/16 Q1024 NOSIG

METARs EXPIRÉS :
  • 221830Z 27007KT 240V300 CAVOK 20/17 Q1024 NOSIG
  • 221800Z 27009KT CAVOK 21/17 Q1024 NOSIG
  • 221730Z 27010KT CAVOK 22/17 Q1024 NOSIG
  • 221700Z 27011KT CAVOK 22/17 Q1024 NOSIG
  • 221630Z 27009KT 250V320 CAVOK 23/18 Q1024 NOSIG

TAF TAF LEVX
Valide du 22 à 18h jusqu'au 23 à 18h UTC


221700Z 2218/2318 VRB05KT CAVOK TX29/2314Z TN16/2306Z
TEMPO 2220/2307 3000 BR BCFG
TEMPO 2221/2306 1500 BCFG
PROB40
TEMPO 2222/2306 0350 FG BKN001
TEMPO 2313/2317 35010KT
Pas de NOTAMs connus pour ce terrain.



MET'MAP, la Météo Aéronautique d'un coup d'oeil ! - Copyright ORBIFLY Décembre 2007 - Disclaimer

ORBIFLY MET'MAP TEAM :

Programmation & Développement : Alexandra Zaïnal
Conception & Développement : Baudouin d'Aumeries
Co-Programmation & Développement : Marc-Olivier Méhu
Soutien technique & logistique : Manuel Goepfert

Contact : metmap@orbifly.com




SOURCES & CREDITS :

   NOAA